Vasiliy Bozhenko — URHP — position and weather

sailwx.info

Track history (hours):
 
Tides and Currents Weather Stations Pressure Air Temp Water Temp Dewpoint Dewpoint Depression Visibility Wind Speed Wind Dir Waves Ship Positions

Vasiliy Bozhenko

Last reported at 2016-Aug-20 21:33 UTC. Time now 2016-Aug-25 16:44 UTC.
Position N 46°25' E 030°55'.

Length 114 m; draft 3.9 m.

Type: Cargo ship. MMSI: 272085000.

Date/timePositionNaut miles runAvg speedWind from/ knotsBaromVisibWave heightAir tempDewpointWater temp
2016-Aug-20 21:33N 46°25' E 030°55'37 6.1
2016-Aug-20 15:29N 46°36' E 031°46'7 7.0
2016-Aug-20 14:33N 46°34' E 031°55'143 4.4
2016-Aug-19 06:18N 47°37' E 035°04'5 7.2
2016-Aug-19 05:33N 47°42' E 035°08'7 6.9
2016-Aug-19 04:33N 47°49' E 035°09'4 3.8
2016-Aug-19 03:33N 47°52' E 035°06'1 0.7
2016-Aug-19 02:32N 47°52' E 035°06'0 0.0
2016-Aug-19 01:32N 47°52' E 035°06'0 0.0
2016-Aug-19 00:32N 47°52' E 035°06'0 0.0
2016-Aug-18 23:32N 47°52' E 035°06'0 0.0
2016-Aug-18 22:24N 47°52' E 035°06'0 0.0
2016-Aug-18 21:30N 47°52' E 035°06'0 0.0
2016-Aug-18 20:30N 47°52' E 035°06'0 0.0
2016-Aug-18 19:30N 47°52' E 035°06'0 0.0
2016-Aug-18 18:30N 47°52' E 035°06'0 0.0
2016-Aug-18 17:20N 47°52' E 035°06'0 0.0
2016-Aug-18 16:27N 47°52' E 035°06'0 0.0
2016-Aug-18 15:33N 47°52' E 035°06'0 0.0
2016-Aug-18 14:29N 47°52' E 035°06'0 0.2
2016-Aug-18 13:31N 47°52' E 035°06'0 0.0
2016-Aug-18 12:30N 47°52' E 035°06'0 0.0
2016-Aug-18 11:31N 47°52' E 035°06'0 0.0
2016-Aug-18 10:33N 47°52' E 035°06'0 0.0
2016-Aug-18 09:28N 47°52' E 035°06'0 0.0
2016-Aug-18 08:29N 47°52' E 035°06'0 0.0
2016-Aug-18 07:22N 47°52' E 035°06'0 0.0
2016-Aug-18 06:28N 47°52' E 035°06'0 0.0
2016-Aug-18 05:28N 47°52' E 035°06'0 0.0
2016-Aug-18 04:28N 47°52' E 035°06'0 0.0
2016-Aug-18 03:32N 47°52' E 035°06'0 0.0
2016-Aug-18 02:32N 47°52' E 035°06'0 0.0
2016-Aug-18 01:32N 47°52' E 035°06'0 0.0
2016-Aug-18 00:32N 47°52' E 035°06'0 0.0
2016-Aug-17 23:32N 47°52' E 035°06'0 0.0
2016-Aug-17 22:33N 47°52' E 035°06'0 0.0
2016-Aug-17 21:33N 47°52' E 035°06'0 0.0
2016-Aug-17 20:31N 47°52' E 035°06'0 0.0
2016-Aug-17 19:31N 47°52' E 035°06'0 0.0
2016-Aug-17 18:25N 47°52' E 035°06'0 0.0
2016-Aug-17 17:29N 47°52' E 035°06'0 0.0
2016-Aug-17 16:30N 47°52' E 035°06'0 0.0
2016-Aug-17 15:24N 47°52' E 035°06'0 0.0
2016-Aug-17 14:31N 47°52' E 035°06'0 0.0
2016-Aug-17 13:33N 47°52' E 035°06'0 0.2
2016-Aug-17 12:33N 47°52' E 035°06'0 0.0
2016-Aug-17 11:33N 47°52' E 035°06'0 0.0
2016-Aug-17 10:33N 47°52' E 035°06'0 0.0
2016-Aug-17 09:32N 47°52' E 035°06'0 0.0
2016-Aug-17 08:30N 47°52' E 035°06'0 0.0
2016-Aug-17 07:28N 47°52' E 035°06'0 0.0
2016-Aug-17 06:31N 47°52' E 035°06'1 0.7
2016-Aug-17 05:33N 47°52' E 035°05'2 1.6
2016-Aug-17 04:29N 47°50' E 035°06'0 0.5
2016-Aug-17 03:33N 47°50' E 035°07'2 2.2
2016-Aug-17 02:31N 47°48' E 035°09'0 0.0
2016-Aug-17 01:32N 47°48' E 035°09'0 0.0
2016-Aug-17 00:27N 47°48' E 035°09'0 0.1
2016-Aug-16 23:33N 47°48' E 035°09'0 0.0
2016-Aug-16 22:33N 47°48' E 035°09'0 0.0
2016-Aug-16 21:33N 47°48' E 035°09'0 0.0
2016-Aug-16 20:30N 47°48' E 035°09'0 0.0
2016-Aug-16 19:28N 47°48' E 035°09'0 0.0
2016-Aug-16 18:32N 47°48' E 035°09'0 0.0
2016-Aug-16 17:33N 47°48' E 035°09'0 0.0
2016-Aug-16 16:33N 47°48' E 035°09'4 4.5
2016-Aug-16 15:33N 47°44' E 035°10'10 7.1
2016-Aug-16 14:09N 47°35' E 035°02'137 5.4
2016-Aug-15 12:33N 46°32' E 032°03'7 7.4
2016-Aug-15 11:33N 46°35' E 031°53'37 7.3
2016-Aug-15 06:29N 46°33' E 030°59'  
Track history (hours):
 
Tides and Currents Weather Stations Pressure Air Temp Water Temp Dewpoint Dewpoint Depression Visibility Wind Speed Wind Dir Waves Ship Positions

Vasiliy Bozhenko

Last reported at 2016-Aug-20 21:33 UTC. Time now 2016-Aug-25 16:44 UTC.
Position N 46°25' E 030°55'.

Length 114 m; draft 3.9 m.

Type: Cargo ship. MMSI: 272085000.

Date/timePositionNaut miles runAvg speedWind from/ knotsBaromVisibWave heightAir tempDewpointWater temp
2016-Aug-20 21:33N 46°25' E 030°55'37 6.1
2016-Aug-20 15:29N 46°36' E 031°46'7 7.0
2016-Aug-20 14:33N 46°34' E 031°55'143 4.4
2016-Aug-19 06:18N 47°37' E 035°04'5 7.2
2016-Aug-19 05:33N 47°42' E 035°08'7 6.9
2016-Aug-19 04:33N 47°49' E 035°09'4 3.8
2016-Aug-19 03:33N 47°52' E 035°06'1 0.7
2016-Aug-19 02:32N 47°52' E 035°06'0 0.0
2016-Aug-19 01:32N 47°52' E 035°06'0 0.0
2016-Aug-19 00:32N 47°52' E 035°06'0 0.0
2016-Aug-18 23:32N 47°52' E 035°06'0 0.0
2016-Aug-18 22:24N 47°52' E 035°06'0 0.0
2016-Aug-18 21:30N 47°52' E 035°06'0 0.0
2016-Aug-18 20:30N 47°52' E 035°06'0 0.0
2016-Aug-18 19:30N 47°52' E 035°06'0 0.0
2016-Aug-18 18:30N 47°52' E 035°06'0 0.0
2016-Aug-18 17:20N 47°52' E 035°06'0 0.0
2016-Aug-18 16:27N 47°52' E 035°06'0 0.0
2016-Aug-18 15:33N 47°52' E 035°06'0 0.0
2016-Aug-18 14:29N 47°52' E 035°06'0 0.2
2016-Aug-18 13:31N 47°52' E 035°06'0 0.0
2016-Aug-18 12:30N 47°52' E 035°06'0 0.0
2016-Aug-18 11:31N 47°52' E 035°06'0 0.0
2016-Aug-18 10:33N 47°52' E 035°06'0 0.0
2016-Aug-18 09:28N 47°52' E 035°06'0 0.0
2016-Aug-18 08:29N 47°52' E 035°06'0 0.0
2016-Aug-18 07:22N 47°52' E 035°06'0 0.0
2016-Aug-18 06:28N 47°52' E 035°06'0 0.0
2016-Aug-18 05:28N 47°52' E 035°06'0 0.0
2016-Aug-18 04:28N 47°52' E 035°06'0 0.0
2016-Aug-18 03:32N 47°52' E 035°06'0 0.0
2016-Aug-18 02:32N 47°52' E 035°06'0 0.0
2016-Aug-18 01:32N 47°52' E 035°06'0 0.0
2016-Aug-18 00:32N 47°52' E 035°06'0 0.0
2016-Aug-17 23:32N 47°52' E 035°06'0 0.0
2016-Aug-17 22:33N 47°52' E 035°06'0 0.0
2016-Aug-17 21:33N 47°52' E 035°06'0 0.0
2016-Aug-17 20:31N 47°52' E 035°06'0 0.0
2016-Aug-17 19:31N 47°52' E 035°06'0 0.0
2016-Aug-17 18:25N 47°52' E 035°06'0 0.0
2016-Aug-17 17:29N 47°52' E 035°06'0 0.0
2016-Aug-17 16:30N 47°52' E 035°06'0 0.0
2016-Aug-17 15:24N 47°52' E 035°06'0 0.0
2016-Aug-17 14:31N 47°52' E 035°06'0 0.0
2016-Aug-17 13:33N 47°52' E 035°06'0 0.2
2016-Aug-17 12:33N 47°52' E 035°06'0 0.0
2016-Aug-17 11:33N 47°52' E 035°06'0 0.0
2016-Aug-17 10:33N 47°52' E 035°06'0 0.0
2016-Aug-17 09:32N 47°52' E 035°06'0 0.0
2016-Aug-17 08:30N 47°52' E 035°06'0 0.0
2016-Aug-17 07:28N 47°52' E 035°06'0 0.0
2016-Aug-17 06:31N 47°52' E 035°06'1 0.7
2016-Aug-17 05:33N 47°52' E 035°05'2 1.6
2016-Aug-17 04:29N 47°50' E 035°06'0 0.5
2016-Aug-17 03:33N 47°50' E 035°07'2 2.2
2016-Aug-17 02:31N 47°48' E 035°09'0 0.0
2016-Aug-17 01:32N 47°48' E 035°09'0 0.0
2016-Aug-17 00:27N 47°48' E 035°09'0 0.1
2016-Aug-16 23:33N 47°48' E 035°09'0 0.0
2016-Aug-16 22:33N 47°48' E 035°09'0 0.0
2016-Aug-16 21:33N 47°48' E 035°09'0 0.0
2016-Aug-16 20:30N 47°48' E 035°09'0 0.0
2016-Aug-16 19:28N 47°48' E 035°09'0 0.0
2016-Aug-16 18:32N 47°48' E 035°09'0 0.0
2016-Aug-16 17:33N 47°48' E 035°09'0 0.0
2016-Aug-16 16:33N 47°48' E 035°09'4 4.5
2016-Aug-16 15:33N 47°44' E 035°10'10 7.1
2016-Aug-16 14:09N 47°35' E 035°02'137 5.4
2016-Aug-15 12:33N 46°32' E 032°03'7 7.4
2016-Aug-15 11:33N 46°35' E 031°53'37 7.3
2016-Aug-15 06:29N 46°33' E 030°59'  

Dump ship's entire track history